Time;durP1;ratioP1;P1;durP2;ratioP2;P2;SDS_P1;SDS_P2;PMS_P1;PMS_P2;Temp;Humidity;BMP_temperature;BMP_pressure;BME280_temperature;BME280_humidity;BME280_pressure;Samples;Min_cycle;Max_cycle;Signal;HPM_P1;HPM_P2
2022/10/21 00:01:28;;;;;;;;;;;15.10;99.90;;;;;;5108581;28;19928;-75
2022/10/21 00:03:55;;;;;;;;;;;15.10;99.90;;;;;;5110204;28;19928;-75
2022/10/21 00:06:21;;;;;;;;;;;15.10;99.90;;;;;;5110098;28;19935;-74
2022/10/21 00:08:48;;;;;;;;;;;15.10;99.90;;;;;;5103845;28;19953;-75
2022/10/21 00:11:15;;;;;;;;;;;15.10;99.90;;;;;;5110897;28;20391;-75
2022/10/21 00:13:41;;;;;;;;;;;15.10;99.90;;;;;;5113134;28;19927;-74
2022/10/21 00:16:09;;;;;;;;;;;15.10;99.90;;;;;;5107834;28;20447;-75
2022/10/21 00:18:38;;;;;;;;;;;15.10;99.90;;;;;;5097612;28;20313;-75
2022/10/21 00:21:06;;;;;;;;;;;15.10;99.90;;;;;;5110034;28;19931;-75
2022/10/21 00:23:32;;;;;;;;;;;15.20;99.90;;;;;;5106278;28;19933;-74
2022/10/21 00:25:59;;;;;;;;;;;15.20;99.90;;;;;;5102851;28;19932;-75
2022/10/21 00:28:26;;;;;;;;;;;15.20;99.90;;;;;;5099652;28;19928;-75
2022/10/21 00:30:53;;;;;;;;;;;15.20;99.90;;;;;;5099713;28;19943;-75
2022/10/21 00:33:19;;;;;;;;;;;15.20;99.90;;;;;;5110015;27;20626;-75
2022/10/21 00:35:52;;;;;;;;;;;15.10;99.90;;;;;;5107306;28;19927;-75
2022/10/21 00:38:18;;;;;;;;;;;15.10;99.90;;;;;;5103033;28;19946;-75
2022/10/21 00:40:45;;;;;;;;;;;15.00;99.90;;;;;;5101845;28;19939;-75
2022/10/21 00:43:12;;;;;;;;;;;15.00;99.90;;;;;;5106819;28;19923;-75
2022/10/21 00:45:39;;;;;;;;;;;15.00;99.90;;;;;;5103102;28;19939;-75
2022/10/21 00:48:11;;;;;;;;;;;15.00;99.90;;;;;;5108017;28;20271;-76
2022/10/21 00:50:41;;;;;;;;;;;15.00;99.90;;;;;;5104264;28;19969;-75
2022/10/21 00:53:10;;;;;;;;;;;15.10;99.90;;;;;;5109237;28;19924;-75
2022/10/21 00:55:38;;;;;;;;;;;15.10;99.90;;;;;;5106549;28;19928;-75
2022/10/21 00:58:05;;;;;;;;;;;15.10;99.90;;;;;;5106432;28;19923;-75
2022/10/21 01:00:32;;;;;;;;;;;15.10;99.90;;;;;;5095441;28;19935;-75
2022/10/21 01:02:59;;;;;;;;;;;15.10;99.90;;;;;;5101457;28;20013;-75
2022/10/21 01:05:26;;;;;;;;;;;15.00;99.90;;;;;;5098735;28;19960;-75
2022/10/21 01:07:53;;;;;;;;;;;15.00;99.90;;;;;;5104167;28;20403;-75
2022/10/21 01:10:21;;;;;;;;;;;15.00;99.90;;;;;;5098392;28;19931;-75
2022/10/21 01:12:54;;;;;;;;;;;14.90;99.90;;;;;;5106153;28;20531;-75
2022/10/21 01:15:23;;;;;;;;;;;14.80;99.90;;;;;;5102384;28;19984;-75
2022/10/21 01:17:54;;;;;;;;;;;14.80;99.90;;;;;;5104564;28;19931;-75
2022/10/21 01:20:35;;;;;;;;;;;14.70;99.90;;;;;;5098827;28;20010;-75
2022/10/21 01:23:33;;;;;;;;;;;14.60;99.90;;;;;;5116603;28;19968;-75
2022/10/21 01:26:13;;;;;;;;;;;14.60;99.90;;;;;;5106521;28;19946;-76
2022/10/21 01:28:47;;;;;;;;;;;14.60;99.90;;;;;;5090115;28;19928;-75
2022/10/21 01:31:18;;;;;;;;;;;14.50;99.90;;;;;;5102713;28;19953;-75
2022/10/21 01:33:47;;;;;;;;;;;14.50;99.90;;;;;;5106999;28;20501;-75
2022/10/21 01:36:19;;;;;;;;;;;14.50;99.90;;;;;;5128602;28;19931;-75
2022/10/21 01:38:49;;;;;;;;;;;14.40;99.90;;;;;;5124393;28;19928;-76
2022/10/21 01:41:21;;;;;;;;;;;14.40;99.90;;;;;;5110554;28;19969;-75
2022/10/21 01:43:50;;;;;;;;;;;14.30;99.90;;;;;;5111487;28;20404;-75
2022/10/21 01:46:23;;;;;;;;;;;14.30;99.90;;;;;;5105367;28;19931;-75
2022/10/21 01:48:53;;;;;;;;;;;14.30;99.90;;;;;;5102329;28;19939;-75
2022/10/21 01:51:20;;;;;;;;;;;14.20;99.90;;;;;;5111559;28;20004;-75
2022/10/21 01:53:50;;;;;;;;;;;14.20;99.90;;;;;;5111457;28;19931;-75
2022/10/21 01:56:17;;;;;;;;;;;14.10;99.90;;;;;;5106460;28;19973;-75
2022/10/21 01:58:45;;;;;;;;;;;14.20;99.90;;;;;;5101363;28;19928;-75
2022/10/21 02:01:13;;;;;;;;;;;14.10;99.90;;;;;;5104475;28;20352;-75
2022/10/21 02:03:43;;;;;;;;;;;14.10;99.90;;;;;;5103646;28;19935;-75
2022/10/21 02:06:12;;;;;;;;;;;14.10;99.90;;;;;;5110665;28;19950;-75
2022/10/21 02:08:39;;;;;;;;;;;14.10;99.90;;;;;;5107077;28;19982;-75
2022/10/21 02:11:08;;;;;;;;;;;14.10;99.90;;;;;;5104381;28;19939;-75
2022/10/21 02:13:37;;;;;;;;;;;14.00;99.90;;;;;;5113117;28;20461;-74
2022/10/21 02:16:06;;;;;;;;;;;14.00;99.90;;;;;;5106641;28;19950;-75
2022/10/21 02:18:33;;;;;;;;;;;14.00;99.90;;;;;;5106249;28;20276;-75
2022/10/21 02:21:02;;;;;;;;;;;14.00;99.90;;;;;;5104559;28;19939;-75
2022/10/21 02:23:33;;;;;;;;;;;14.00;99.90;;;;;;5111791;28;19924;-75
2022/10/21 02:26:00;;;;;;;;;;;14.10;99.90;;;;;;5109790;28;19936;-75
2022/10/21 02:28:27;;;;;;;;;;;14.10;99.90;;;;;;5110320;28;19927;-75
2022/10/21 02:30:56;;;;;;;;;;;14.10;99.90;;;;;;5118117;28;19928;-74
2022/10/21 02:33:27;;;;;;;;;;;14.10;99.90;;;;;;5111570;28;19927;-74
2022/10/21 02:35:57;;;;;;;;;;;14.10;99.90;;;;;;5106126;28;19939;-74
2022/10/21 02:38:27;;;;;;;;;;;14.10;99.90;;;;;;5111173;28;20007;-74
2022/10/21 02:40:55;;;;;;;;;;;14.10;99.90;;;;;;5108822;28;19928;-74
2022/10/21 02:43:24;;;;;;;;;;;14.10;99.90;;;;;;5109038;28;19934;-75
2022/10/21 02:45:54;;;;;;;;;;;14.10;99.90;;;;;;5108436;27;19924;-74
2022/10/21 02:48:20;;;;;;;;;;;14.10;99.90;;;;;;5104749;28;19928;-73
2022/10/21 02:50:47;;;;;;;;;;;14.10;99.90;;;;;;5104476;28;20265;-74
2022/10/21 02:53:14;;;;;;;;;;;14.10;99.90;;;;;;5110229;28;20030;-74
2022/10/21 02:55:42;;;;;;;;;;;14.10;99.90;;;;;;5110599;28;20496;-73
2022/10/21 02:58:09;;;;;;;;;;;14.10;99.90;;;;;;5105328;28;19928;-73
2022/10/21 03:00:35;;;;;;;;;;;14.10;99.90;;;;;;5102336;28;19923;-74
2022/10/21 03:03:02;;;;;;;;;;;14.10;99.90;;;;;;5105881;28;19924;-74
2022/10/21 03:05:29;;;;;;;;;;;14.20;99.90;;;;;;5104457;28;21081;-74
2022/10/21 03:07:55;;;;;;;;;;;14.20;99.90;;;;;;5106664;28;19924;-74
2022/10/21 03:10:22;;;;;;;;;;;14.20;99.90;;;;;;5104299;28;19970;-75
2022/10/21 03:12:50;;;;;;;;;;;14.20;99.90;;;;;;5113263;28;20311;-75
2022/10/21 03:15:17;;;;;;;;;;;14.20;99.90;;;;;;5110056;28;19981;-74
2022/10/21 03:17:44;;;;;;;;;;;14.30;99.90;;;;;;5109340;28;19924;-74
2022/10/21 03:20:11;;;;;;;;;;;14.30;99.90;;;;;;5121397;28;19993;-74
2022/10/21 03:22:37;;;;;;;;;;;14.30;99.90;;;;;;5099341;28;20060;-74
2022/10/21 03:25:04;;;;;;;;;;;14.30;99.90;;;;;;5108583;28;19946;-74
2022/10/21 03:27:31;;;;;;;;;;;14.30;99.90;;;;;;5109845;28;19980;-74
2022/10/21 03:29:59;;;;;;;;;;;14.30;99.90;;;;;;5104858;28;19923;-74
2022/10/21 03:32:26;;;;;;;;;;;14.30;99.90;;;;;;5102965;28;20368;-73
2022/10/21 03:34:52;;;;;;;;;;;14.30;99.90;;;;;;5109819;28;20369;-74
2022/10/21 03:37:19;;;;;;;;;;;14.20;99.90;;;;;;5106911;28;20282;-74
2022/10/21 03:39:46;;;;;;;;;;;14.30;99.90;;;;;;5105833;28;19928;-74
2022/10/21 03:42:12;;;;;;;;;;;14.20;99.90;;;;;;5093916;28;19936;-74
2022/10/21 03:44:39;;;;;;;;;;;14.20;99.90;;;;;;5097521;28;19973;-74
2022/10/21 03:47:07;;;;;;;;;;;14.20;99.90;;;;;;5108424;28;20394;-74
2022/10/21 03:49:34;;;;;;;;;;;14.20;99.90;;;;;;5115103;28;19924;-74
2022/10/21 03:52:01;;;;;;;;;;;14.20;99.90;;;;;;5100596;28;20431;-75
2022/10/21 03:54:27;;;;;;;;;;;14.20;99.90;;;;;;5104499;28;20005;-74
2022/10/21 03:56:54;;;;;;;;;;;14.20;99.90;;;;;;5095523;28;19924;-74
2022/10/21 03:59:21;;;;;;;;;;;14.20;99.90;;;;;;5109803;28;19932;-74
2022/10/21 04:01:47;;;;;;;;;;;14.20;99.90;;;;;;5108788;28;19981;-74
2022/10/21 04:04:15;;;;;;;;;;;14.20;99.90;;;;;;5106882;28;19928;-74
2022/10/21 04:06:42;;;;;;;;;;;14.20;99.90;;;;;;5104304;28;19928;-74
2022/10/21 04:09:09;;;;;;;;;;;14.20;99.90;;;;;;5104649;28;19939;-74
2022/10/21 04:11:36;;;;;;;;;;;14.20;99.90;;;;;;5103253;28;19939;-74
2022/10/21 04:14:03;;;;;;;;;;;14.20;99.90;;;;;;5098827;28;19928;-74
2022/10/21 04:16:29;;;;;;;;;;;14.20;99.90;;;;;;5100113;28;20759;-73
2022/10/21 04:18:56;;;;;;;;;;;14.20;99.90;;;;;;5107038;28;19935;-74
2022/10/21 04:21:24;;;;;;;;;;;14.20;99.90;;;;;;5092468;28;19928;-76
2022/10/21 04:23:51;;;;;;;;;;;14.20;99.90;;;;;;5098397;28;19927;-74
2022/10/21 04:26:17;;;;;;;;;;;14.20;99.90;;;;;;5101551;28;19932;-73
2022/10/21 04:28:44;;;;;;;;;;;14.20;99.90;;;;;;5108637;28;19931;-74
2022/10/21 04:31:11;;;;;;;;;;;14.20;99.90;;;;;;5106075;28;19962;-74
2022/10/21 04:33:37;;;;;;;;;;;14.20;99.90;;;;;;5098775;28;20652;-75
2022/10/21 04:36:05;;;;;;;;;;;14.20;99.90;;;;;;5101548;28;19928;-75
2022/10/21 04:38:33;;;;;;;;;;;14.20;99.90;;;;;;5102065;28;19928;-76
2022/10/21 04:41:00;;;;;;;;;;;14.30;99.90;;;;;;5096581;28;20497;-75
2022/10/21 04:43:28;;;;;;;;;;;14.40;99.90;;;;;;5105352;28;19930;-76
2022/10/21 04:45:54;;;;;;;;;;;14.40;99.90;;;;;;5101872;28;20350;-75
2022/10/21 04:48:21;;;;;;;;;;;14.50;99.90;;;;;;5096742;28;20013;-74
2022/10/21 04:50:48;;;;;;;;;;;14.50;99.90;;;;;;5092974;28;19928;-76
2022/10/21 04:53:15;;;;;;;;;;;14.60;99.90;;;;;;5105436;28;20312;-77
2022/10/21 04:55:43;;;;;;;;;;;14.50;99.90;;;;;;5103354;28;20523;-76
2022/10/21 04:58:10;;;;;;;;;;;14.60;99.90;;;;;;5104802;28;19928;-75
2022/10/21 05:00:37;;;;;;;;;;;14.70;99.90;;;;;;5086911;28;19928;-75
2022/10/21 05:03:04;;;;;;;;;;;14.70;99.90;;;;;;5101764;28;19935;-75
2022/10/21 05:05:30;;;;;;;;;;;14.70;99.90;;;;;;5100237;28;19928;-75
2022/10/21 05:07:57;;;;;;;;;;;14.70;99.90;;;;;;5101379;28;19927;-75
2022/10/21 05:10:24;;;;;;;;;;;14.70;99.90;;;;;;5104762;28;19981;-74
2022/10/21 05:12:52;;;;;;;;;;;14.60;99.90;;;;;;5103988;28;19931;-76
2022/10/21 05:15:19;;;;;;;;;;;14.60;99.90;;;;;;5107638;28;20024;-74
2022/10/21 05:17:46;;;;;;;;;;;14.60;99.90;;;;;;5105135;28;19976;-75
2022/10/21 05:20:12;;;;;;;;;;;14.60;99.90;;;;;;5101308;28;20055;-74
2022/10/21 05:22:39;;;;;;;;;;;14.60;99.90;;;;;;5101317;28;19932;-74
2022/10/21 05:25:06;;;;;;;;;;;14.70;99.90;;;;;;5111252;28;19942;-75
2022/10/21 05:27:33;;;;;;;;;;;14.70;99.90;;;;;;5106007;28;19951;-74
2022/10/21 05:30:01;;;;;;;;;;;14.60;99.90;;;;;;5105481;27;20011;-74
2022/10/21 05:32:28;;;;;;;;;;;14.60;99.90;;;;;;5111523;28;19924;-74
2022/10/21 05:34:54;;;;;;;;;;;14.60;99.90;;;;;;5126918;28;20180;-74
2022/10/21 05:37:21;;;;;;;;;;;14.50;99.90;;;;;;5113595;28;19932;-74
2022/10/21 05:39:48;;;;;;;;;;;14.50;99.90;;;;;;5111854;28;19953;-75
2022/10/21 05:42:15;;;;;;;;;;;14.50;99.90;;;;;;5101902;28;20149;-75
2022/10/21 05:44:41;;;;;;;;;;;14.50;99.90;;;;;;5112202;28;19927;-75
2022/10/21 05:47:09;;;;;;;;;;;14.40;99.90;;;;;;5112706;28;19924;-75
2022/10/21 05:49:36;;;;;;;;;;;14.40;99.90;;;;;;5099882;28;19924;-74
2022/10/21 05:52:03;;;;;;;;;;;14.40;99.90;;;;;;5106777;28;19935;-75
2022/10/21 05:54:30;;;;;;;;;;;14.30;99.90;;;;;;5105291;28;19934;-75
2022/10/21 05:56:57;;;;;;;;;;;14.30;99.90;;;;;;5113585;28;20339;-74
2022/10/21 05:59:24;;;;;;;;;;;14.30;99.90;;;;;;5102810;28;19927;-74
2022/10/21 06:01:51;;;;;;;;;;;14.20;99.90;;;;;;5125271;27;19950;-74
2022/10/21 06:07:48;;;;;;;;;;;14.20;99.90;;;;;;5100562;28;19994;-74
2022/10/21 06:10:15;;;;;;;;;;;14.10;99.90;;;;;;5116008;28;19924;-75
2022/10/21 06:12:42;;;;;;;;;;;14.10;99.90;;;;;;5110885;28;19963;-74
2022/10/21 06:15:09;;;;;;;;;;;14.10;99.90;;;;;;5112207;28;20289;-75
2022/10/21 06:17:36;;;;;;;;;;;14.10;99.90;;;;;;5104111;28;19928;-74
2022/10/21 06:20:03;;;;;;;;;;;14.10;99.90;;;;;;5101599;28;19930;-74
2022/10/21 06:22:29;;;;;;;;;;;14.10;99.90;;;;;;5104550;28;19927;-74
2022/10/21 06:24:57;;;;;;;;;;;14.10;99.90;;;;;;5105827;28;19931;-74
2022/10/21 06:27:24;;;;;;;;;;;14.00;99.90;;;;;;5116482;28;20086;-74
2022/10/21 06:29:51;;;;;;;;;;;14.00;99.90;;;;;;5126127;28;19927;-72
2022/10/21 06:32:17;;;;;;;;;;;14.00;99.90;;;;;;5112419;28;19966;-74
2022/10/21 06:34:44;;;;;;;;;;;14.00;99.90;;;;;;5109497;28;19928;-75
2022/10/21 06:37:11;;;;;;;;;;;14.00;99.90;;;;;;5102331;28;19928;-74
2022/10/21 06:39:37;;;;;;;;;;;14.10;99.90;;;;;;5102873;28;19993;-76
2022/10/21 06:42:05;;;;;;;;;;;14.10;99.90;;;;;;5108070;28;20557;-76
2022/10/21 06:44:45;;;;;;;;;;;14.10;99.90;;;;;;5097404;28;19924;-75
2022/10/21 06:47:12;;;;;;;;;;;14.10;99.90;;;;;;5105299;28;20065;-75
2022/10/21 06:49:39;;;;;;;;;;;14.20;99.90;;;;;;5110503;28;19931;-75
2022/10/21 06:52:05;;;;;;;;;;;14.20;99.90;;;;;;5105542;28;19932;-75
2022/10/21 06:54:32;;;;;;;;;;;14.20;99.90;;;;;;5105025;28;20011;-75
2022/10/21 06:56:59;;;;;;;;;;;14.30;99.90;;;;;;5101937;28;19923;-75
2022/10/21 06:59:27;;;;;;;;;;;14.30;99.90;;;;;;5103589;28;19936;-76
2022/10/21 07:01:53;;;;;;;;;;;14.50;99.90;;;;;;5109345;28;19930;-77
2022/10/21 07:04:20;;;;;;;;;;;14.50;99.90;;;;;;5095963;27;19928;-76
2022/10/21 07:06:47;;;;;;;;;;;14.60;99.90;;;;;;5093976;28;19939;-76
2022/10/21 07:09:15;;;;;;;;;;;14.70;99.90;;;;;;5107029;28;19928;-77
2022/10/21 07:11:41;;;;;;;;;;;14.80;99.90;;;;;;5101049;28;19928;-76
2022/10/21 07:14:08;;;;;;;;;;;14.90;99.90;;;;;;5100311;28;20509;-76
2022/10/21 07:16:36;;;;;;;;;;;15.00;99.90;;;;;;5101185;28;20640;-76
2022/10/21 07:19:03;;;;;;;;;;;15.00;99.90;;;;;;5117605;28;19939;-77
2022/10/21 07:21:30;;;;;;;;;;;15.10;99.90;;;;;;5108827;28;20327;-77
2022/10/21 07:23:58;;;;;;;;;;;15.20;99.90;;;;;;5100406;28;19954;-77
2022/10/21 07:26:25;;;;;;;;;;;13.50;99.90;;;;;;5108836;28;19942;-77
2022/10/21 07:28:52;;;;;;;;;;;15.30;99.90;;;;;;5108582;28;19924;-76
2022/10/21 07:31:20;;;;;;;;;;;15.40;99.90;;;;;;5092095;28;19934;-75
2022/10/21 07:33:48;;;;;;;;;;;15.40;99.90;;;;;;5100956;28;19935;-75
2022/10/21 07:36:17;;;;;;;;;;;15.50;99.90;;;;;;5099657;28;19953;-75
2022/10/21 07:38:45;;;;;;;;;;;15.50;99.90;;;;;;5101113;28;19988;-76
2022/10/21 07:41:13;;;;;;;;;;;15.60;99.90;;;;;;5106342;28;19927;-77
2022/10/21 07:43:40;;;;;;;;;;;15.70;99.90;;;;;;5103757;28;19931;-76
2022/10/21 07:46:07;;;;;;;;;;;15.80;99.90;;;;;;5102612;28;19931;-76
2022/10/21 07:48:33;;;;;;;;;;;15.80;99.90;;;;;;5100855;28;19935;-77
2022/10/21 07:51:03;;;;;;;;;;;15.90;99.90;;;;;;5107920;28;19924;-78
2022/10/21 07:53:30;;;;;;;;;;;15.90;99.90;;;;;;5089732;28;19995;-77
2022/10/21 07:56:04;;;;;;;;;;;15.80;99.90;;;;;;5582816;22;20031;-77
2022/10/21 07:58:31;;;;;;;;;;;16.00;99.90;;;;;;5061353;28;19933;-77
2022/10/21 08:00:59;;;;;;;;;;;16.10;99.90;;;;;;5070239;28;19933;-78
2022/10/21 08:03:27;;;;;;;;;;;16.10;99.90;;;;;;5064239;28;19936;-77
2022/10/21 08:05:54;;;;;;;;;;;16.20;99.90;;;;;;5068309;28;19932;-78
2022/10/21 08:08:22;;;;;;;;;;;16.30;99.90;;;;;;5067611;28;20042;-76
2022/10/21 08:10:49;;;;;;;;;;;16.30;99.90;;;;;;5068392;28;20321;-76
2022/10/21 08:13:16;;;;;;;;;;;16.40;99.90;;;;;;5068861;28;20340;-75
2022/10/21 08:15:43;;;;;;;;;;;16.40;99.90;;;;;;5068425;28;19931;-75
2022/10/21 08:18:10;;;;;;;;;;;16.50;99.90;;;;;;5091412;22;19932;-75
2022/10/21 08:20:38;;;;;;;;;;;18.00;99.90;;;;;;5081155;28;19924;-75
2022/10/21 08:23:05;;;;;;;;;;;16.50;99.90;;;;;;5082706;28;19928;-76
2022/10/21 08:25:33;;;;;;;;;;;16.50;99.90;;;;;;5077892;28;19928;-76
2022/10/21 08:27:59;;;;;;;;;;;16.50;99.90;;;;;;5087460;28;19928;-75
2022/10/21 08:30:28;;;;;;;;;;;16.60;99.90;;;;;;5066993;28;19998;-76
2022/10/21 08:32:55;;;;;;;;;;;16.60;99.90;;;;;;5069880;28;20381;-76
2022/10/21 08:35:22;;;;;;;;;;;16.60;99.90;;;;;;5067421;28;19951;-77
2022/10/21 08:37:49;;;;;;;;;;;16.60;99.90;;;;;;5069483;28;19932;-76
2022/10/21 08:40:16;;;;;;;;;;;16.50;99.90;;;;;;5064391;28;19924;-77
2022/10/21 08:42:45;;;;;;;;;;;16.50;99.90;;;;;;5053381;28;19935;-75
2022/10/21 08:45:14;;;;;;;;;;;16.50;99.90;;;;;;5065031;28;19924;-75
2022/10/21 08:47:44;;;;;;;;;;;16.50;99.90;;;;;;5063033;28;20321;-76
2022/10/21 08:50:13;;;;;;;;;;;16.50;99.90;;;;;;5059027;28;19924;-75
2022/10/21 08:52:42;;;;;;;;;;;16.50;99.90;;;;;;5059303;28;20037;-76
2022/10/21 08:55:13;;;;;;;;;;;16.50;99.90;;;;;;5064714;28;19928;-76
2022/10/21 08:57:40;;;;;;;;;;;16.50;99.90;;;;;;5059517;28;20008;-76
2022/10/21 09:00:14;;;;;;;;;;;16.50;99.90;;;;;;5057497;28;20279;-76
2022/10/21 09:02:46;;;;;;;;;;;16.50;99.90;;;;;;5061732;28;20002;-76
2022/10/21 09:05:25;;;;;;;;;;;16.50;99.90;;;;;;5064417;28;19928;-75
2022/10/21 09:07:58;;;;;;;;;;;16.50;99.90;;;;;;5063119;28;19928;-75
2022/10/21 09:10:27;;;;;;;;;;;16.50;99.90;;;;;;5060142;28;19939;-75
2022/10/21 09:12:59;;;;;;;;;;;16.50;99.90;;;;;;5069201;28;19932;-75
2022/10/21 09:15:30;;;;;;;;;;;16.50;99.90;;;;;;5064192;28;20355;-75
2022/10/21 09:18:17;;;;;;;;;;;16.50;99.90;;;;;;5062504;28;19955;-77
2022/10/21 09:20:54;;;;;;;;;;;16.50;99.90;;;;;;5055526;28;19932;-76
2022/10/21 09:23:31;;;;;;;;;;;16.50;99.90;;;;;;5066162;28;19928;-76
2022/10/21 09:26:00;;;;;;;;;;;16.50;99.90;;;;;;5065914;28;19928;-76
2022/10/21 09:28:28;;;;;;;;;;;16.60;99.90;;;;;;5065337;28;19936;-76
2022/10/21 09:30:57;;;;;;;;;;;16.60;99.90;;;;;;5059188;28;20644;-76
2022/10/21 09:33:28;;;;;;;;;;;16.70;99.90;;;;;;5068633;28;20017;-76
2022/10/21 09:36:07;;;;;;;;;;;16.80;99.90;;;;;;5063651;28;19934;-76
2022/10/21 09:38:39;;;;;;;;;;;17.00;99.90;;;;;;5055861;28;20026;-76
2022/10/21 09:41:07;;;;;;;;;;;17.00;99.90;;;;;;5059382;28;20639;-77
2022/10/21 09:43:34;;;;;;;;;;;17.10;99.90;;;;;;5074803;28;19928;-76
2022/10/21 09:46:03;;;;;;;;;;;17.30;99.90;;;;;;5050760;28;19986;-76
2022/10/21 09:48:34;;;;;;;;;;;17.30;99.90;;;;;;5068093;28;19939;-76
2022/10/21 09:51:09;;;;;;;;;;;17.40;99.90;;;;;;5049514;28;20325;-76
2022/10/21 09:53:38;;;;;;;;;;;17.30;99.90;;;;;;5058338;28;20579;-76
2022/10/21 09:56:09;;;;;;;;;;;17.20;99.90;;;;;;5065317;28;19929;-76
2022/10/21 09:58:44;;;;;;;;;;;17.20;99.90;;;;;;5053489;28;19982;-73
2022/10/21 10:01:16;;;;;;;;;;;17.10;99.90;;;;;;5059411;28;19963;-76
2022/10/21 10:03:44;;;;;;;;;;;17.10;99.90;;;;;;5060275;28;20505;-77
2022/10/21 10:06:11;;;;;;;;;;;17.00;99.90;;;;;;5061677;28;20011;-76
2022/10/21 10:08:38;;;;;;;;;;;17.10;99.90;;;;;;5060622;28;20306;-77
2022/10/21 10:11:12;;;;;;;;;;;17.20;99.90;;;;;;5069622;28;19928;-77
2022/10/21 10:13:39;;;;;;;;;;;17.30;99.90;;;;;;5063144;28;20521;-77
2022/10/21 10:16:21;;;;;;;;;;;17.30;99.90;;;;;;5069694;28;19951;-76
2022/10/21 10:18:47;;;;;;;;;;;17.30;99.90;;;;;;5071174;28;19928;-76
2022/10/21 10:21:15;;;;;;;;;;;17.40;99.90;;;;;;5058393;28;19995;-77
2022/10/21 10:23:46;;;;;;;;;;;17.30;99.90;;;;;;5066646;28;19935;-75
2022/10/21 10:26:17;;;;;;;;;;;17.30;99.90;;;;;;5069304;28;19968;-75
2022/10/21 10:28:48;;;;;;;;;;;17.30;99.90;;;;;;5059719;28;19940;-76
2022/10/21 10:31:22;;;;;;;;;;;17.30;99.90;;;;;;5064392;28;19928;-76
2022/10/21 10:33:53;;;;;;;;;;;17.20;99.90;;;;;;5069564;28;19931;-76
2022/10/21 10:36:25;;;;;;;;;;;17.20;99.90;;;;;;5065327;28;19928;-76
2022/10/21 10:38:53;;;;;;;;;;;17.20;99.90;;;;;;5062260;28;20404;-76
2022/10/21 10:41:20;;;;;;;;;;;17.10;99.90;;;;;;5065426;28;19989;-76
2022/10/21 10:43:48;;;;;;;;;;;17.10;99.90;;;;;;5058315;28;19928;-76
2022/10/21 10:46:20;;;;;;;;;;;17.10;99.90;;;;;;5069876;28;19924;-76
2022/10/21 10:48:49;;;;;;;;;;;17.10;99.90;;;;;;5060004;28;19929;-76
2022/10/21 10:51:25;;;;;;;;;;;17.10;99.90;;;;;;5057119;28;19924;-76
2022/10/21 10:54:02;;;;;;;;;;;17.10;99.90;;;;;;5057994;28;20559;-76
2022/10/21 10:56:31;;;;;;;;;;;17.10;99.90;;;;;;5056063;28;19935;-76
2022/10/21 10:59:02;;;;;;;;;;;17.10;99.90;;;;;;5054737;28;19933;-76
2022/10/21 11:01:31;;;;;;;;;;;17.20;99.90;;;;;;5055767;28;19940;-76
2022/10/21 11:03:59;;;;;;;;;;;17.30;99.90;;;;;;5055545;28;19936;-76
2022/10/21 11:06:32;;;;;;;;;;;17.30;99.90;;;;;;5056105;28;19944;-76
2022/10/21 11:09:00;;;;;;;;;;;17.40;99.90;;;;;;5068306;28;19928;-76
2022/10/21 11:11:29;;;;;;;;;;;17.40;99.90;;;;;;5054465;28;19928;-76
2022/10/21 11:13:56;;;;;;;;;;;17.50;99.90;;;;;;5063794;28;19982;-76
2022/10/21 11:16:41;;;;;;;;;;;17.60;99.90;;;;;;5061393;28;20022;-76
2022/10/21 11:19:11;;;;;;;;;;;17.60;99.90;;;;;;5063944;28;19929;-76
2022/10/21 11:21:43;;;;;;;;;;;17.70;99.90;;;;;;5064048;28;19935;-76
2022/10/21 11:24:20;;;;;;;;;;;17.80;99.90;;;;;;5054033;28;19963;-76
2022/10/21 11:26:50;;;;;;;;;;;17.90;99.90;;;;;;5065177;28;19929;-77
2022/10/21 11:29:28;;;;;;;;;;;18.20;99.90;;;;;;5067419;28;20574;-77
2022/10/21 11:31:59;;;;;;;;;;;18.40;99.90;;;;;;5065882;28;19932;-76
2022/10/21 11:34:28;;;;;;;;;;;18.70;99.90;;;;;;5072095;28;20089;-76
2022/10/21 11:37:02;;;;;;;;;;;18.90;99.90;;;;;;5060526;28;19928;-77
2022/10/21 11:39:33;;;;;;;;;;;19.30;99.90;;;;;;5072408;28;19933;-76
2022/10/21 11:42:03;;;;;;;;;;;19.30;99.90;;;;;;5055445;28;19924;-75
2022/10/21 11:44:45;;;;;;;;;;;19.40;99.90;;;;;;5059669;28;19924;-75
2022/10/21 11:47:16;;;;;;;;;;;19.50;99.90;;;;;;5054074;28;19998;-76
2022/10/21 11:49:47;;;;;;;;;;;19.60;99.90;;;;;;5056716;28;19929;-76
2022/10/21 11:52:21;;;;;;;;;;;19.70;99.90;;;;;;5051058;28;20423;-76
2022/10/21 11:54:54;;;;;;;;;;;18.10;99.90;;;;;;5059194;28;19948;-76
2022/10/21 11:57:24;;;;;;;;;;;19.80;99.90;;;;;;5052225;28;19924;-75
2022/10/21 11:59:59;;;;;;;;;;;19.90;99.90;;;;;;5061030;28;20002;-75
2022/10/21 12:02:30;;;;;;;;;;;19.90;99.90;;;;;;5066237;28;20398;-75
2022/10/21 12:05:03;;;;;;;;;;;20.00;99.90;;;;;;5058845;28;19924;-76
2022/10/21 12:07:41;;;;;;;;;;;20.00;99.90;;;;;;5062551;28;19929;-75
2022/10/21 12:10:12;;;;;;;;;;;20.20;99.90;;;;;;5067898;28;20015;-75
2022/10/21 12:12:40;;;;;;;;;;;20.40;99.90;;;;;;5085347;28;19935;-73
2022/10/21 12:15:13;;;;;;;;;;;20.80;99.90;;;;;;5065490;28;20424;-74
2022/10/21 12:17:40;;;;;;;;;;;21.10;99.90;;;;;;5074690;28;19929;-78
2022/10/21 12:20:10;;;;;;;;;;;21.40;99.90;;;;;;5058233;28;19925;-75
2022/10/21 12:22:38;;;;;;;;;;;21.50;99.90;;;;;;5065168;28;20281;-77
2022/10/21 12:25:09;;;;;;;;;;;21.60;99.90;;;;;;5058522;28;20402;-76
2022/10/21 12:27:41;;;;;;;;;;;21.60;99.90;;;;;;5067008;28;19928;-75
2022/10/21 12:30:12;;;;;;;;;;;21.70;99.90;;;;;;5059062;28;19934;-75
2022/10/21 12:32:43;;;;;;;;;;;21.80;99.90;;;;;;5057956;28;19940;-76
2022/10/21 12:35:12;;;;;;;;;;;21.70;99.90;;;;;;5062501;28;19929;-76
2022/10/21 12:37:45;;;;;;;;;;;21.70;99.90;;;;;;5059651;28;19929;-76
2022/10/21 12:40:13;;;;;;;;;;;21.60;99.90;;;;;;5068163;28;19955;-75
2022/10/21 12:42:45;;;;;;;;;;;21.60;99.90;;;;;;5070391;28;19940;-75
2022/10/21 12:45:25;;;;;;;;;;;21.70;99.90;;;;;;5066787;28;19935;-76
2022/10/21 12:47:52;;;;;;;;;;;21.70;99.90;;;;;;5056092;28;20393;-75
2022/10/21 12:50:22;;;;;;;;;;;21.80;99.90;;;;;;5055125;28;19933;-76
2022/10/21 12:53:05;;;;;;;;;;;21.80;99.90;;;;;;5057016;28;19925;-76
2022/10/21 12:55:38;;;;;;;;;;;21.60;99.90;;;;;;5061074;28;20016;-76
2022/10/21 12:58:21;;;;;;;;;;;21.40;99.90;;;;;;5072184;28;20051;-76
2022/10/21 13:01:25;;;;;;;;;;;21.30;99.90;;;;;;5059616;28;20405;-76
2022/10/21 13:03:54;;;;;;;;;;;21.20;99.90;;;;;;5059863;28;20423;-76
2022/10/21 13:06:40;;;;;;;;;;;21.10;99.90;;;;;;5060247;28;20275;-77
2022/10/21 13:09:30;;;;;;;;;;;21.10;99.90;;;;;;5067672;28;19958;-76
2022/10/21 13:12:02;;;;;;;;;;;21.20;99.90;;;;;;5082151;28;20019;-76
2022/10/21 13:14:29;;;;;;;;;;;21.10;99.90;;;;;;5057672;28;19928;-78
2022/10/21 13:17:11;;;;;;;;;;;21.10;99.90;;;;;;5056366;28;19924;-77
2022/10/21 13:19:37;;;;;;;;;;;21.10;99.90;;;;;;5058994;28;19925;-77
2022/10/21 13:22:11;;;;;;;;;;;21.00;99.90;;;;;;5066194;28;19928;-76
2022/10/21 13:24:39;;;;;;;;;;;21.00;99.90;;;;;;5065717;28;19929;-77
2022/10/21 13:27:21;;;;;;;;;;;21.00;99.90;;;;;;5067317;28;19935;-77
2022/10/21 13:29:48;;;;;;;;;;;20.90;99.90;;;;;;5078679;28;19987;-75
2022/10/21 13:32:30;;;;;;;;;;;20.80;99.90;;;;;;5064834;28;19944;-74
2022/10/21 13:34:58;;;;;;;;;;;20.80;99.90;;;;;;5063501;28;20404;-76
2022/10/21 13:37:27;;;;;;;;;;;20.80;99.90;;;;;;5066661;28;20684;-75
2022/10/21 13:39:57;;;;;;;;;;;20.70;99.90;;;;;;5055967;28;19980;-75
2022/10/21 13:42:25;;;;;;;;;;;20.70;99.90;;;;;;5068278;28;19924;-75
2022/10/21 13:44:53;;;;;;;;;;;20.70;99.90;;;;;;5068298;28;19924;-76
2022/10/21 13:47:26;;;;;;;;;;;20.70;99.90;;;;;;5070521;28;19928;-78
2022/10/21 13:49:54;;;;;;;;;;;20.90;99.90;;;;;;5072472;28;20247;-78
2022/10/21 13:52:21;;;;;;;;;;;21.10;99.90;;;;;;5077263;28;19943;-78
2022/10/21 13:54:57;;;;;;;;;;;21.30;99.90;;;;;;5071084;28;19967;-80
2022/10/21 13:57:28;;;;;;;;;;;21.30;99.90;;;;;;5060529;28;20405;-79
2022/10/21 14:00:04;;;;;;;;;;;21.30;99.90;;;;;;5069237;28;19928;-79
2022/10/21 14:02:31;;;;;;;;;;;21.20;99.90;;;;;;5068853;28;19936;-79
2022/10/21 14:04:58;;;;;;;;;;;21.10;99.90;;;;;;5066555;28;20354;-80
2022/10/21 14:07:27;;;;;;;;;;;21.00;99.90;;;;;;5072142;28;20470;-81
2022/10/21 14:09:57;;;;;;;;;;;20.50;99.90;;;;;;5075244;28;19929;-83
2022/10/21 14:12:33;;;;;;;;;;;20.50;99.90;;;;;;5073126;28;19928;-82
2022/10/21 14:15:03;;;;;;;;;;;20.20;99.90;;;;;;5079353;28;19924;-84
2022/10/21 14:17:31;;;;;;;;;;;20.00;99.90;;;;;;5071494;28;20012;-80
2022/10/21 14:20:03;;;;;;;;;;;19.80;99.90;;;;;;5076568;28;19937;-80
2022/10/21 14:22:32;;;;;;;;;;;19.80;99.90;;;;;;5071820;28;19975;-80
2022/10/21 14:25:00;;;;;;;;;;;19.60;99.90;;;;;;5068923;28;20313;-79
2022/10/21 14:27:29;;;;;;;;;;;19.60;99.90;;;;;;5067876;28;20015;-79
2022/10/21 14:29:58;;;;;;;;;;;19.60;99.90;;;;;;5065617;28;19935;-79
2022/10/21 14:32:26;;;;;;;;;;;19.50;99.90;;;;;;5059565;28;19946;-79